sensor_id;sensor_type;location;lat;lon;timestamp;pressure;altitude;pressure_sealevel;temperature;humidity
74790;BME280;63318;52.406;13.416;2023-04-25T00:01:25;100201.36;;;8.39;67.32
74790;BME280;63318;52.406;13.416;2023-04-25T00:03:53;100203.58;;;8.37;67.17
74790;BME280;63318;52.406;13.416;2023-04-25T00:06:21;100203.23;;;8.34;67.13
74790;BME280;63318;52.406;13.416;2023-04-25T00:08:50;100203.56;;;8.31;67.21
74790;BME280;63318;52.406;13.416;2023-04-25T00:11:18;100202.71;;;8.28;67.31
74790;BME280;63318;52.406;13.416;2023-04-25T00:13:47;100203.02;;;8.26;67.07
74790;BME280;63318;52.406;13.416;2023-04-25T00:16:15;100200.63;;;8.24;66.83
74790;BME280;63318;52.406;13.416;2023-04-25T00:18:44;100199.77;;;8.21;66.94
74790;BME280;63318;52.406;13.416;2023-04-25T00:21:12;100196.84;;;8.18;66.97
74790;BME280;63318;52.406;13.416;2023-04-25T00:23:42;100197.17;;;8.16;67.00
74790;BME280;63318;52.406;13.416;2023-04-25T00:26:11;100197.44;;;8.14;67.02
74790;BME280;63318;52.406;13.416;2023-04-25T00:28:40;100194.60;;;8.11;66.83
74790;BME280;63318;52.406;13.416;2023-04-25T00:31:08;100196.27;;;8.08;66.84
74790;BME280;63318;52.406;13.416;2023-04-25T00:33:36;100194.31;;;8.05;66.80
74790;BME280;63318;52.406;13.416;2023-04-25T00:36:05;100200.88;;;8.04;66.93
74790;BME280;63318;52.406;13.416;2023-04-25T00:38:34;100199.77;;;8.02;66.99
74790;BME280;63318;52.406;13.416;2023-04-25T00:41:04;100200.16;;;8.01;67.16
74790;BME280;63318;52.406;13.416;2023-04-25T00:43:33;100198.83;;;8.00;67.14
74790;BME280;63318;52.406;13.416;2023-04-25T00:46:02;100201.59;;;8.00;67.07
74790;BME280;63318;52.406;13.416;2023-04-25T00:48:31;100194.98;;;8.01;66.85
74790;BME280;63318;52.406;13.416;2023-04-25T00:51:00;100198.72;;;8.02;66.99
74790;BME280;63318;52.406;13.416;2023-04-25T00:53:29;100197.52;;;8.03;67.25
74790;BME280;63318;52.406;13.416;2023-04-25T00:55:58;100198.89;;;8.05;67.05
74790;BME280;63318;52.406;13.416;2023-04-25T00:58:26;100198.80;;;8.05;67.24
74790;BME280;63318;52.406;13.416;2023-04-25T01:00:54;100192.64;;;8.06;67.33
74790;BME280;63318;52.406;13.416;2023-04-25T01:03:24;100189.86;;;8.08;67.22
74790;BME280;63318;52.406;13.416;2023-04-25T01:05:52;100187.35;;;8.09;67.52
74790;BME280;63318;52.406;13.416;2023-04-25T01:08:23;100181.16;;;8.11;67.51
74790;BME280;63318;52.406;13.416;2023-04-25T01:10:52;100184.10;;;8.12;67.27
74790;BME280;63318;52.406;13.416;2023-04-25T01:13:20;100179.56;;;8.14;67.30
74790;BME280;63318;52.406;13.416;2023-04-25T01:15:49;100176.86;;;8.14;67.25
74790;BME280;63318;52.406;13.416;2023-04-25T01:18:17;100176.59;;;8.15;67.37
74790;BME280;63318;52.406;13.416;2023-04-25T01:20:47;100180.75;;;8.15;67.27
74790;BME280;63318;52.406;13.416;2023-04-25T01:23:17;100181.08;;;8.15;67.31
74790;BME280;63318;52.406;13.416;2023-04-25T01:25:46;100178.47;;;8.16;67.28
74790;BME280;63318;52.406;13.416;2023-04-25T01:28:15;100182.40;;;8.17;67.55
74790;BME280;63318;52.406;13.416;2023-04-25T01:30:44;100180.03;;;8.17;67.72
74790;BME280;63318;52.406;13.416;2023-04-25T01:33:15;100181.23;;;8.18;67.31
74790;BME280;63318;52.406;13.416;2023-04-25T01:35:43;100180.40;;;8.18;67.43
74790;BME280;63318;52.406;13.416;2023-04-25T01:38:13;100183.84;;;8.19;67.37
74790;BME280;63318;52.406;13.416;2023-04-25T01:40:42;100182.73;;;8.19;67.41
74790;BME280;63318;52.406;13.416;2023-04-25T01:43:13;100183.56;;;8.18;67.39
74790;BME280;63318;52.406;13.416;2023-04-25T01:45:41;100181.96;;;8.18;67.54
74790;BME280;63318;52.406;13.416;2023-04-25T01:48:10;100180.79;;;8.17;67.61
74790;BME280;63318;52.406;13.416;2023-04-25T01:50:41;100181.25;;;8.17;67.39
74790;BME280;63318;52.406;13.416;2023-04-25T01:53:12;100179.41;;;8.17;67.63
74790;BME280;63318;52.406;13.416;2023-04-25T01:55:40;100178.36;;;8.15;67.53
74790;BME280;63318;52.406;13.416;2023-04-25T01:58:09;100180.17;;;8.14;67.45
74790;BME280;63318;52.406;13.416;2023-04-25T02:00:38;100186.88;;;8.13;67.39
74790;BME280;63318;52.406;13.416;2023-04-25T02:03:07;100183.27;;;8.13;67.67
74790;BME280;63318;52.406;13.416;2023-04-25T02:05:37;100183.38;;;8.11;67.78
74790;BME280;63318;52.406;13.416;2023-04-25T02:08:06;100181.81;;;8.10;67.79
74790;BME280;63318;52.406;13.416;2023-04-25T02:10:35;100181.73;;;8.10;67.72
74790;BME280;63318;52.406;13.416;2023-04-25T02:13:04;100180.99;;;8.09;67.78
74790;BME280;63318;52.406;13.416;2023-04-25T02:15:33;100185.42;;;8.08;67.94
74790;BME280;63318;52.406;13.416;2023-04-25T02:18:01;100186.41;;;8.07;67.85
74790;BME280;63318;52.406;13.416;2023-04-25T02:20:30;100186.96;;;8.07;68.06
74790;BME280;63318;52.406;13.416;2023-04-25T02:22:58;100184.92;;;8.08;67.91
74790;BME280;63318;52.406;13.416;2023-04-25T02:25:27;100181.75;;;8.07;67.84
74790;BME280;63318;52.406;13.416;2023-04-25T02:27:55;100179.66;;;8.06;67.74
74790;BME280;63318;52.406;13.416;2023-04-25T02:30:23;100181.52;;;8.05;68.21
74790;BME280;63318;52.406;13.416;2023-04-25T02:32:52;100180.93;;;8.05;68.09
74790;BME280;63318;52.406;13.416;2023-04-25T02:35:20;100182.36;;;8.04;67.80
74790;BME280;63318;52.406;13.416;2023-04-25T02:37:48;100184.61;;;8.03;67.85
74790;BME280;63318;52.406;13.416;2023-04-25T02:40:17;100181.46;;;8.02;68.08
74790;BME280;63318;52.406;13.416;2023-04-25T02:42:45;100181.57;;;8.01;68.23
74790;BME280;63318;52.406;13.416;2023-04-25T02:45:13;100179.47;;;8.00;68.18
74790;BME280;63318;52.406;13.416;2023-04-25T02:47:42;100181.07;;;7.99;68.08
74790;BME280;63318;52.406;13.416;2023-04-25T02:50:11;100179.46;;;7.99;67.98
74790;BME280;63318;52.406;13.416;2023-04-25T02:52:39;100178.57;;;7.98;68.04
74790;BME280;63318;52.406;13.416;2023-04-25T02:55:08;100176.29;;;7.97;67.95
74790;BME280;63318;52.406;13.416;2023-04-25T02:57:36;100175.64;;;7.97;68.18
74790;BME280;63318;52.406;13.416;2023-04-25T03:00:07;100174.59;;;7.95;68.12
74790;BME280;63318;52.406;13.416;2023-04-25T03:02:35;100173.91;;;7.95;68.35
74790;BME280;63318;52.406;13.416;2023-04-25T03:05:04;100174.69;;;7.95;68.39
74790;BME280;63318;52.406;13.416;2023-04-25T03:07:32;100174.02;;;7.94;68.32
74790;BME280;63318;52.406;13.416;2023-04-25T03:10:00;100174.86;;;7.94;68.34
74790;BME280;63318;52.406;13.416;2023-04-25T03:12:29;100174.13;;;7.94;68.35
74790;BME280;63318;52.406;13.416;2023-04-25T03:14:57;100170.88;;;7.94;68.70
74790;BME280;63318;52.406;13.416;2023-04-25T03:17:25;100173.69;;;7.93;68.51
74790;BME280;63318;52.406;13.416;2023-04-25T03:19:53;100174.41;;;7.93;68.51
74790;BME280;63318;52.406;13.416;2023-04-25T03:22:22;100173.59;;;7.94;68.61
74790;BME280;63318;52.406;13.416;2023-04-25T03:24:51;100176.18;;;7.94;68.77
74790;BME280;63318;52.406;13.416;2023-04-25T03:27:19;100172.81;;;7.94;68.74
74790;BME280;63318;52.406;13.416;2023-04-25T03:29:47;100174.03;;;7.94;68.77
74790;BME280;63318;52.406;13.416;2023-04-25T03:32:15;100173.08;;;7.94;68.55
74790;BME280;63318;52.406;13.416;2023-04-25T03:34:44;100175.35;;;7.94;68.75
74790;BME280;63318;52.406;13.416;2023-04-25T03:37:12;100177.89;;;7.93;68.63
74790;BME280;63318;52.406;13.416;2023-04-25T03:39:40;100177.51;;;7.93;68.69
74790;BME280;63318;52.406;13.416;2023-04-25T03:42:08;100178.05;;;7.93;68.69
74790;BME280;63318;52.406;13.416;2023-04-25T03:44:36;100178.45;;;7.94;68.75
74790;BME280;63318;52.406;13.416;2023-04-25T03:47:05;100175.85;;;7.94;68.64
74790;BME280;63318;52.406;13.416;2023-04-25T03:49:34;100178.84;;;7.95;68.59
74790;BME280;63318;52.406;13.416;2023-04-25T03:52:02;100181.00;;;7.96;68.71
74790;BME280;63318;52.406;13.416;2023-04-25T03:54:31;100183.55;;;7.96;68.69
74790;BME280;63318;52.406;13.416;2023-04-25T03:56:59;100184.71;;;7.97;68.47
74790;BME280;63318;52.406;13.416;2023-04-25T03:59:27;100188.09;;;7.96;68.73
74790;BME280;63318;52.406;13.416;2023-04-25T04:01:56;100190.25;;;7.97;68.59
74790;BME280;63318;52.406;13.416;2023-04-25T04:04:24;100191.52;;;7.96;68.70
74790;BME280;63318;52.406;13.416;2023-04-25T04:06:53;100197.27;;;7.97;68.61
74790;BME280;63318;52.406;13.416;2023-04-25T04:09:21;100200.59;;;7.97;68.51
74790;BME280;63318;52.406;13.416;2023-04-25T04:11:50;100201.73;;;7.97;68.44
74790;BME280;63318;52.406;13.416;2023-04-25T04:14:18;100202.02;;;7.96;68.59
74790;BME280;63318;52.406;13.416;2023-04-25T04:16:46;100206.56;;;7.96;68.90
74790;BME280;63318;52.406;13.416;2023-04-25T04:19:16;100207.11;;;7.96;69.01
74790;BME280;63318;52.406;13.416;2023-04-25T04:21:44;100206.83;;;7.96;68.90
74790;BME280;63318;52.406;13.416;2023-04-25T04:24:12;100207.27;;;7.96;68.80
74790;BME280;63318;52.406;13.416;2023-04-25T04:26:40;100209.92;;;7.96;68.74
74790;BME280;63318;52.406;13.416;2023-04-25T04:29:09;100211.20;;;7.96;68.97
74790;BME280;63318;52.406;13.416;2023-04-25T04:31:37;100212.96;;;7.95;68.88
74790;BME280;63318;52.406;13.416;2023-04-25T04:34:05;100213.20;;;7.96;69.04
74790;BME280;63318;52.406;13.416;2023-04-25T04:36:33;100211.20;;;7.95;69.03
74790;BME280;63318;52.406;13.416;2023-04-25T04:39:02;100212.03;;;7.95;68.99
74790;BME280;63318;52.406;13.416;2023-04-25T04:41:30;100214.64;;;7.96;68.92
74790;BME280;63318;52.406;13.416;2023-04-25T04:43:58;100211.77;;;7.97;68.97
74790;BME280;63318;52.406;13.416;2023-04-25T04:46:26;100210.21;;;7.97;68.90
74790;BME280;63318;52.406;13.416;2023-04-25T04:48:55;100216.20;;;7.98;69.13
74790;BME280;63318;52.406;13.416;2023-04-25T04:51:23;100217.91;;;7.99;69.13
74790;BME280;63318;52.406;13.416;2023-04-25T04:53:51;100220.45;;;8.00;69.10
74790;BME280;63318;52.406;13.416;2023-04-25T04:56:19;100224.50;;;8.02;68.97
74790;BME280;63318;52.406;13.416;2023-04-25T04:58:48;100221.91;;;8.04;69.30
74790;BME280;63318;52.406;13.416;2023-04-25T05:01:16;100220.52;;;8.05;69.11
74790;BME280;63318;52.406;13.416;2023-04-25T05:03:44;100226.14;;;8.08;69.25
74790;BME280;63318;52.406;13.416;2023-04-25T05:06:12;100225.85;;;8.11;69.28
74790;BME280;63318;52.406;13.416;2023-04-25T05:08:41;100223.88;;;8.13;69.19
74790;BME280;63318;52.406;13.416;2023-04-25T05:11:09;100227.16;;;8.16;69.36
74790;BME280;63318;52.406;13.416;2023-04-25T05:13:37;100227.77;;;8.18;69.59
74790;BME280;63318;52.406;13.416;2023-04-25T05:16:06;100226.63;;;8.23;69.28
74790;BME280;63318;52.406;13.416;2023-04-25T05:18:34;100225.77;;;8.25;69.18
74790;BME280;63318;52.406;13.416;2023-04-25T05:21:02;100228.55;;;8.27;69.20
74790;BME280;63318;52.406;13.416;2023-04-25T05:23:32;100230.89;;;8.30;69.02
74790;BME280;63318;52.406;13.416;2023-04-25T05:26:01;100228.20;;;8.33;69.13
74790;BME280;63318;52.406;13.416;2023-04-25T05:28:29;100234.29;;;8.35;68.95
74790;BME280;63318;52.406;13.416;2023-04-25T05:30:57;100236.84;;;8.37;69.15
74790;BME280;63318;52.406;13.416;2023-04-25T05:33:26;100232.30;;;8.39;69.21
74790;BME280;63318;52.406;13.416;2023-04-25T05:35:54;100234.68;;;8.41;69.13
74790;BME280;63318;52.406;13.416;2023-04-25T05:38:22;100235.23;;;8.44;69.25
74790;BME280;63318;52.406;13.416;2023-04-25T05:40:50;100234.09;;;8.46;69.27
74790;BME280;63318;52.406;13.416;2023-04-25T05:43:19;100232.95;;;8.50;69.30
74790;BME280;63318;52.406;13.416;2023-04-25T05:45:47;100237.98;;;8.52;69.26
74790;BME280;63318;52.406;13.416;2023-04-25T05:48:15;100239.22;;;8.56;69.04
74790;BME280;63318;52.406;13.416;2023-04-25T05:50:44;100239.71;;;8.57;69.11
74790;BME280;63318;52.406;13.416;2023-04-25T05:53:12;100244.48;;;8.59;69.07
74790;BME280;63318;52.406;13.416;2023-04-25T05:55:40;100248.86;;;8.61;69.14
74790;BME280;63318;52.406;13.416;2023-04-25T05:58:08;100251.97;;;8.64;69.10
74790;BME280;63318;52.406;13.416;2023-04-25T06:00:37;100256.02;;;8.66;69.20
74790;BME280;63318;52.406;13.416;2023-04-25T06:03:05;100259.02;;;8.69;69.15
74790;BME280;63318;52.406;13.416;2023-04-25T06:05:33;100254.80;;;8.70;69.17
74790;BME280;63318;52.406;13.416;2023-04-25T06:08:02;100262.67;;;8.73;69.08
74790;BME280;63318;52.406;13.416;2023-04-25T06:10:30;100260.30;;;8.75;69.05
74790;BME280;63318;52.406;13.416;2023-04-25T06:12:58;100264.06;;;8.75;68.92
74790;BME280;63318;52.406;13.416;2023-04-25T06:15:26;100263.67;;;8.76;69.20
74790;BME280;63318;52.406;13.416;2023-04-25T06:17:55;100264.80;;;8.78;69.19
74790;BME280;63318;52.406;13.416;2023-04-25T06:20:24;100265.18;;;8.80;69.03
74790;BME280;63318;52.406;13.416;2023-04-25T06:22:52;100263.35;;;8.81;69.14
74790;BME280;63318;52.406;13.416;2023-04-25T06:25:20;100262.58;;;8.82;69.10
74790;BME280;63318;52.406;13.416;2023-04-25T06:27:48;100270.22;;;8.85;69.04
74790;BME280;63318;52.406;13.416;2023-04-25T06:30:17;100267.46;;;8.87;69.11
74790;BME280;63318;52.406;13.416;2023-04-25T06:32:45;100270.06;;;8.90;68.98
74790;BME280;63318;52.406;13.416;2023-04-25T06:35:13;100268.13;;;8.92;69.23
74790;BME280;63318;52.406;13.416;2023-04-25T06:37:47;100267.06;;;8.94;68.85
74790;BME280;63318;52.406;13.416;2023-04-25T06:40:15;100271.86;;;8.96;69.11
74790;BME280;63318;52.406;13.416;2023-04-25T06:42:43;100270.04;;;8.98;69.04
74790;BME280;63318;52.406;13.416;2023-04-25T06:45:13;100268.98;;;9.01;68.99
74790;BME280;63318;52.406;13.416;2023-04-25T06:47:41;100273.79;;;9.02;68.90
74790;BME280;63318;52.406;13.416;2023-04-25T06:50:10;100273.64;;;9.03;68.92
74790;BME280;63318;52.406;13.416;2023-04-25T06:52:38;100276.52;;;9.05;69.18
74790;BME280;63318;52.406;13.416;2023-04-25T06:55:08;100276.73;;;9.07;69.33
74790;BME280;63318;52.406;13.416;2023-04-25T06:57:38;100274.64;;;9.09;69.43
74790;BME280;63318;52.406;13.416;2023-04-25T07:00:10;100273.80;;;9.12;69.17
74790;BME280;63318;52.406;13.416;2023-04-25T07:02:38;100275.91;;;9.14;69.10
74790;BME280;63318;52.406;13.416;2023-04-25T07:05:07;100276.42;;;9.15;69.02
74790;BME280;63318;52.406;13.416;2023-04-25T07:07:36;100277.90;;;9.16;69.14
74790;BME280;63318;52.406;13.416;2023-04-25T07:10:05;100277.14;;;9.15;69.01
74790;BME280;63318;52.406;13.416;2023-04-25T07:12:33;100282.45;;;9.16;69.06
74790;BME280;63318;52.406;13.416;2023-04-25T07:15:01;100285.95;;;9.15;69.06
74790;BME280;63318;52.406;13.416;2023-04-25T07:17:30;100285.95;;;9.16;68.83
74790;BME280;63318;52.406;13.416;2023-04-25T07:19:58;100288.66;;;9.15;68.87
74790;BME280;63318;52.406;13.416;2023-04-25T07:22:26;100294.70;;;9.15;69.13
74790;BME280;63318;52.406;13.416;2023-04-25T07:24:55;100302.02;;;9.16;69.07
74790;BME280;63318;52.406;13.416;2023-04-25T07:27:23;100302.79;;;9.15;69.26
74790;BME280;63318;52.406;13.416;2023-04-25T07:29:52;100304.51;;;9.14;69.28
74790;BME280;63318;52.406;13.416;2023-04-25T07:32:20;100305.02;;;9.14;69.56
74790;BME280;63318;52.406;13.416;2023-04-25T07:34:49;100310.67;;;9.15;69.96
74790;BME280;63318;52.406;13.416;2023-04-25T07:37:18;100312.11;;;9.15;69.90
74790;BME280;63318;52.406;13.416;2023-04-25T07:39:46;100313.15;;;9.13;70.37
74790;BME280;63318;52.406;13.416;2023-04-25T07:42:14;100321.41;;;9.09;69.85
74790;BME280;63318;52.406;13.416;2023-04-25T07:44:44;100326.71;;;9.02;69.94
74790;BME280;63318;52.406;13.416;2023-04-25T07:47:12;100327.70;;;8.98;69.84
74790;BME280;63318;52.406;13.416;2023-04-25T07:49:40;100328.91;;;8.96;69.85
74790;BME280;63318;52.406;13.416;2023-04-25T07:52:08;100335.34;;;8.97;69.96
74790;BME280;63318;52.406;13.416;2023-04-25T07:54:37;100338.73;;;8.96;69.67
74790;BME280;63318;52.406;13.416;2023-04-25T07:57:05;100340.34;;;8.96;69.66
74790;BME280;63318;52.406;13.416;2023-04-25T07:59:34;100335.34;;;8.96;69.73
74790;BME280;63318;52.406;13.416;2023-04-25T08:02:02;100340.94;;;8.97;69.58
74790;BME280;63318;52.406;13.416;2023-04-25T08:04:31;100347.80;;;8.97;69.67
74790;BME280;63318;52.406;13.416;2023-04-25T08:07:00;100347.04;;;8.96;69.52
74790;BME280;63318;52.406;13.416;2023-04-25T08:09:28;100349.02;;;8.96;69.60
74790;BME280;63318;52.406;13.416;2023-04-25T08:11:56;100350.52;;;8.96;69.51
74790;BME280;63318;52.406;13.416;2023-04-25T08:14:25;100351.98;;;8.97;69.49
74790;BME280;63318;52.406;13.416;2023-04-25T08:16:53;100350.31;;;9.00;69.44
74790;BME280;63318;52.406;13.416;2023-04-25T08:19:21;100352.66;;;9.06;69.31
74790;BME280;63318;52.406;13.416;2023-04-25T08:21:50;100354.00;;;9.13;69.45
74790;BME280;63318;52.406;13.416;2023-04-25T08:24:18;100359.71;;;9.19;69.29
74790;BME280;63318;52.406;13.416;2023-04-25T08:26:46;100364.10;;;9.25;69.40
74790;BME280;63318;52.406;13.416;2023-04-25T08:29:14;100368.48;;;9.29;69.29
74790;BME280;63318;52.406;13.416;2023-04-25T08:31:43;100371.82;;;9.35;69.20
74790;BME280;63318;52.406;13.416;2023-04-25T08:34:11;100373.27;;;9.43;69.03
74790;BME280;63318;52.406;13.416;2023-04-25T08:36:39;100374.73;;;9.52;68.68
74790;BME280;63318;52.406;13.416;2023-04-25T08:39:08;100376.61;;;9.61;68.58
74790;BME280;63318;52.406;13.416;2023-04-25T08:41:37;100379.06;;;9.71;67.74
74790;BME280;63318;52.406;13.416;2023-04-25T08:44:06;100382.50;;;9.80;67.55
74790;BME280;63318;52.406;13.416;2023-04-25T08:46:39;100384.94;;;9.88;67.11
74790;BME280;63318;52.406;13.416;2023-04-25T08:49:08;100386.27;;;9.93;66.57
74790;BME280;63318;52.406;13.416;2023-04-25T08:51:39;100389.42;;;9.98;66.22
74790;BME280;63318;52.406;13.416;2023-04-25T08:54:13;100392.80;;;10.03;65.97
74790;BME280;63318;52.406;13.416;2023-04-25T08:56:45;100394.69;;;10.10;65.83
74790;BME280;63318;52.406;13.416;2023-04-25T08:59:15;100396.36;;;10.18;65.33
74790;BME280;63318;52.406;13.416;2023-04-25T09:01:45;100401.40;;;10.25;64.78
74790;BME280;63318;52.406;13.416;2023-04-25T09:04:14;100407.22;;;10.34;64.29
74790;BME280;63318;52.406;13.416;2023-04-25T09:06:43;100406.20;;;10.41;63.36
74790;BME280;63318;52.406;13.416;2023-04-25T09:09:11;100412.62;;;10.51;62.87
74790;BME280;63318;52.406;13.416;2023-04-25T09:11:39;100415.08;;;10.62;62.37
74790;BME280;63318;52.406;13.416;2023-04-25T09:14:15;100416.84;;;10.72;62.60
74790;BME280;63318;52.406;13.416;2023-04-25T09:17:01;100416.95;;;10.81;61.52
74790;BME280;63318;52.406;13.416;2023-04-25T09:19:30;100415.10;;;11.01;61.34
74790;BME280;63318;52.406;13.416;2023-04-25T09:22:00;100412.41;;;11.26;61.06
74790;BME280;63318;52.406;13.416;2023-04-25T09:24:36;100415.64;;;11.61;61.20
74790;BME280;63318;52.406;13.416;2023-04-25T09:27:09;100416.51;;;11.96;60.78
74790;BME280;63318;52.406;13.416;2023-04-25T09:29:36;100418.02;;;12.25;59.00
74790;BME280;63318;52.406;13.416;2023-04-25T09:32:17;100415.55;;;12.48;59.08
74790;BME280;63318;52.406;13.416;2023-04-25T09:34:47;100417.79;;;12.78;58.07
74790;BME280;63318;52.406;13.416;2023-04-25T09:37:19;100424.82;;;13.01;57.08
74790;BME280;63318;52.406;13.416;2023-04-25T09:39:48;100429.66;;;13.24;56.93
74790;BME280;63318;52.406;13.416;2023-04-25T09:42:17;100429.77;;;13.28;55.67
74790;BME280;63318;52.406;13.416;2023-04-25T09:44:46;100437.58;;;13.34;55.59
74790;BME280;63318;52.406;13.416;2023-04-25T09:47:15;100436.91;;;13.38;55.08
74790;BME280;63318;52.406;13.416;2023-04-25T09:49:44;100433.20;;;13.40;55.57
74790;BME280;63318;52.406;13.416;2023-04-25T09:52:16;100434.22;;;13.42;55.36
74790;BME280;63318;52.406;13.416;2023-04-25T09:54:46;100434.22;;;13.38;54.64
74790;BME280;63318;52.406;13.416;2023-04-25T09:57:16;100438.77;;;13.32;54.70
74790;BME280;63318;52.406;13.416;2023-04-25T09:59:47;100442.77;;;13.26;54.46
74790;BME280;63318;52.406;13.416;2023-04-25T10:02:17;100441.42;;;13.21;54.24
74790;BME280;63318;52.406;13.416;2023-04-25T10:04:49;100436.76;;;13.15;54.21
74790;BME280;63318;52.406;13.416;2023-04-25T10:07:19;100438.36;;;13.07;54.30
74790;BME280;63318;52.406;13.416;2023-04-25T10:09:49;100445.80;;;12.99;53.83
74790;BME280;63318;52.406;13.416;2023-04-25T10:12:17;100442.26;;;12.92;53.82
74790;BME280;63318;52.406;13.416;2023-04-25T10:14:47;100444.02;;;12.85;53.91
74790;BME280;63318;52.406;13.416;2023-04-25T10:17:16;100445.77;;;12.79;53.27
74790;BME280;63318;52.406;13.416;2023-04-25T10:19:45;100446.52;;;12.72;52.80
74790;BME280;63318;52.406;13.416;2023-04-25T10:22:18;100448.86;;;12.66;53.17
74790;BME280;63318;52.406;13.416;2023-04-25T10:24:49;100449.07;;;12.63;53.10
74790;BME280;63318;52.406;13.416;2023-04-25T10:27:18;100457.24;;;12.59;53.31
74790;BME280;63318;52.406;13.416;2023-04-25T10:30:02;100455.21;;;12.56;53.31
74790;BME280;63318;52.406;13.416;2023-04-25T10:32:32;100460.97;;;12.53;52.69
74790;BME280;63318;52.406;13.416;2023-04-25T10:35:11;100463.06;;;12.51;52.67
74790;BME280;63318;52.406;13.416;2023-04-25T10:37:40;100458.52;;;12.48;51.61
74790;BME280;63318;52.406;13.416;2023-04-25T10:40:24;100461.80;;;12.49;52.10
74790;BME280;63318;52.406;13.416;2023-04-25T10:42:54;100458.26;;;12.52;51.27
74790;BME280;63318;52.406;13.416;2023-04-25T10:45:23;100460.26;;;12.52;51.62
74790;BME280;63318;52.406;13.416;2023-04-25T10:47:51;100460.95;;;12.57;51.33
74790;BME280;63318;52.406;13.416;2023-04-25T10:50:19;100461.06;;;12.67;51.14
74790;BME280;63318;52.406;13.416;2023-04-25T10:52:48;100464.29;;;12.79;51.37
74790;BME280;63318;52.406;13.416;2023-04-25T10:55:16;100463.81;;;12.85;50.44
74790;BME280;63318;52.406;13.416;2023-04-25T10:57:45;100464.21;;;12.89;50.68
74790;BME280;63318;52.406;13.416;2023-04-25T11:00:16;100473.02;;;12.89;50.40
74790;BME280;63318;52.406;13.416;2023-04-25T11:02:46;100476.88;;;12.84;50.42
74790;BME280;63318;52.406;13.416;2023-04-25T11:05:26;100480.02;;;12.83;50.46
74790;BME280;63318;52.406;13.416;2023-04-25T11:07:57;100480.88;;;12.80;50.04
74790;BME280;63318;52.406;13.416;2023-04-25T11:10:29;100481.45;;;12.80;50.33
74790;BME280;63318;52.406;13.416;2023-04-25T11:12:58;100480.48;;;12.79;49.93
74790;BME280;63318;52.406;13.416;2023-04-25T11:15:26;100483.46;;;12.77;49.68
74790;BME280;63318;52.406;13.416;2023-04-25T11:17:55;100487.90;;;12.75;49.78
74790;BME280;63318;52.406;13.416;2023-04-25T11:20:26;100485.51;;;12.75;49.93
74790;BME280;63318;52.406;13.416;2023-04-25T11:22:54;100489.95;;;12.76;49.87
74790;BME280;63318;52.406;13.416;2023-04-25T11:25:25;100492.47;;;12.75;49.63
74790;BME280;63318;52.406;13.416;2023-04-25T11:27:55;100496.15;;;12.70;49.32
74790;BME280;63318;52.406;13.416;2023-04-25T11:30:27;100501.64;;;12.65;49.37
74790;BME280;63318;52.406;13.416;2023-04-25T11:32:56;100503.35;;;12.62;49.31
74790;BME280;63318;52.406;13.416;2023-04-25T11:35:25;100507.59;;;12.57;49.07
74790;BME280;63318;52.406;13.416;2023-04-25T11:37:53;100508.70;;;12.51;49.27
74790;BME280;63318;52.406;13.416;2023-04-25T11:40:21;100512.80;;;12.48;49.09
74790;BME280;63318;52.406;13.416;2023-04-25T11:42:49;100519.81;;;12.43;49.02
74790;BME280;63318;52.406;13.416;2023-04-25T11:45:18;100527.12;;;12.35;48.94
74790;BME280;63318;52.406;13.416;2023-04-25T11:47:46;100532.67;;;12.24;48.41
74790;BME280;63318;52.406;13.416;2023-04-25T11:50:14;100532.81;;;12.11;48.44
74790;BME280;63318;52.406;13.416;2023-04-25T11:52:44;100535.62;;;12.02;48.60
74790;BME280;63318;52.406;13.416;2023-04-25T11:55:15;100537.41;;;11.92;48.36
74790;BME280;63318;52.406;13.416;2023-04-25T11:57:47;100540.41;;;11.85;48.50
74790;BME280;63318;52.406;13.416;2023-04-25T12:00:18;100544.81;;;11.81;48.32
74790;BME280;63318;52.406;13.416;2023-04-25T12:02:47;100546.43;;;11.82;48.15
74790;BME280;63318;52.406;13.416;2023-04-25T12:05:18;100547.58;;;11.86;47.98
74790;BME280;63318;52.406;13.416;2023-04-25T12:07:47;100546.10;;;11.91;47.78
74790;BME280;63318;52.406;13.416;2023-04-25T12:10:17;100543.27;;;11.97;47.69
74790;BME280;63318;52.406;13.416;2023-04-25T12:12:46;100544.19;;;12.02;47.42
74790;BME280;63318;52.406;13.416;2023-04-25T12:15:17;100544.09;;;12.07;47.53
74790;BME280;63318;52.406;13.416;2023-04-25T12:17:48;100543.11;;;12.12;47.48
74790;BME280;63318;52.406;13.416;2023-04-25T12:20:18;100548.52;;;12.13;47.48
74790;BME280;63318;52.406;13.416;2023-04-25T12:22:47;100550.08;;;12.13;47.31
74790;BME280;63318;52.406;13.416;2023-04-25T12:25:35;100553.14;;;12.12;47.38
74790;BME280;63318;52.406;13.416;2023-04-25T12:28:12;100552.02;;;12.12;47.47
74790;BME280;63318;52.406;13.416;2023-04-25T12:31:01;100553.64;;;12.11;47.54
74790;BME280;63318;52.406;13.416;2023-04-25T12:33:31;100553.30;;;12.13;47.23
74790;BME280;63318;52.406;13.416;2023-04-25T12:36:00;100557.36;;;12.14;47.30
74790;BME280;63318;52.406;13.416;2023-04-25T12:38:29;100555.89;;;12.16;47.13
74790;BME280;63318;52.406;13.416;2023-04-25T12:40:58;100551.53;;;12.19;47.11
74790;BME280;63318;52.406;13.416;2023-04-25T12:43:26;100549.95;;;12.22;46.69
74790;BME280;63318;52.406;13.416;2023-04-25T12:45:55;100549.31;;;12.24;46.68
74790;BME280;63318;52.406;13.416;2023-04-25T12:48:24;100549.45;;;12.29;46.49
74790;BME280;63318;52.406;13.416;2023-04-25T12:50:53;100551.35;;;12.35;46.55
74790;BME280;63318;52.406;13.416;2023-04-25T12:53:22;100552.41;;;12.47;46.64
74790;BME280;63318;52.406;13.416;2023-04-25T12:55:51;100548.84;;;12.66;46.46
74790;BME280;63318;52.406;13.416;2023-04-25T12:58:20;100553.68;;;12.75;45.71